createdAt,value
2017-05-12T00:00:33.408Z,0
2017-05-12T00:01:43.336Z,0
2017-05-12T00:02:53.662Z,0
2017-05-12T00:04:03.880Z,0
2017-05-12T00:05:13.781Z,0
2017-05-12T00:06:24.017Z,0
2017-05-12T00:07:33.924Z,0
2017-05-12T00:08:44.445Z,0
2017-05-12T00:09:54.359Z,0
2017-05-12T00:11:03.958Z,0
2017-05-12T00:12:13.558Z,0
2017-05-12T00:13:23.160Z,0
2017-05-12T00:14:33.163Z,0
2017-05-12T00:15:42.478Z,0
2017-05-12T00:16:52.089Z,0
2017-05-12T00:18:02.317Z,0
2017-05-12T00:19:12.539Z,0
2017-05-12T00:20:22.707Z,0
2017-05-12T00:21:32.923Z,0
2017-05-12T00:22:42.839Z,0
2017-05-12T00:23:52.763Z,0
2017-05-12T00:25:02.987Z,0
2017-05-12T00:26:12.682Z,0
2017-05-12T00:27:22.598Z,0
2017-05-12T00:28:32.510Z,0
2017-05-12T00:29:42.744Z,0
2017-05-12T00:30:52.971Z,0
2017-05-12T00:32:03.306Z,0
2017-05-12T00:33:12.602Z,0
2017-05-12T00:34:22.512Z,0
2017-05-12T00:35:32.427Z,0
2017-05-12T00:36:42.023Z,0
2017-05-12T00:37:52.588Z,0
2017-05-12T00:39:02.506Z,0
2017-05-12T00:40:12.403Z,0
2017-05-12T00:41:22.309Z,0
2017-05-12T00:42:32.222Z,0
2017-05-12T00:43:42.288Z,0
2017-05-12T00:44:51.879Z,0
2017-05-12T00:46:01.797Z,0
2017-05-12T00:47:11.085Z,0
2017-05-12T00:48:21.315Z,0
2017-05-12T00:49:31.473Z,0
2017-05-12T00:50:41.374Z,0
2017-05-12T00:51:51.288Z,0
2017-05-12T00:53:00.885Z,0
2017-05-12T00:54:11.111Z,0
2017-05-12T00:55:21.497Z,0
2017-05-12T00:56:31.095Z,0
2017-05-12T00:57:40.413Z,0
2017-05-12T00:58:50.010Z,0
2017-05-12T00:59:59.655Z,0
2017-05-12T01:01:09.506Z,0
2017-05-12T01:02:19.444Z,0
2017-05-12T01:03:29.671Z,0
2017-05-12T01:04:39.585Z,0
2017-05-12T01:05:49.185Z,0
2017-05-12T01:06:59.091Z,0
2017-05-12T01:08:09.303Z,0
2017-05-12T01:09:19.510Z,0
2017-05-12T01:10:29.720Z,0
2017-05-12T01:11:39.326Z,0
2017-05-12T01:12:48.973Z,0
2017-05-12T01:13:58.881Z,0
2017-05-12T01:15:09.089Z,0
2017-05-12T01:16:19.338Z,0
2017-05-12T01:17:28.974Z,0
2017-05-12T01:18:39.378Z,0
2017-05-12T01:19:48.986Z,0
2017-05-12T01:20:59.227Z,0
2017-05-12T01:22:09.140Z,0
2017-05-12T01:23:19.362Z,0
2017-05-12T01:24:29.935Z,0
2017-05-12T01:25:40.151Z,0
2017-05-12T01:26:50.058Z,0
2017-05-12T01:28:00.318Z,0
2017-05-12T01:29:10.545Z,0
2017-05-12T01:30:20.299Z,0
2017-05-12T01:31:30.210Z,0
2017-05-12T01:32:39.825Z,0
2017-05-12T01:33:49.437Z,0
2017-05-12T01:34:59.649Z,0
2017-05-12T01:36:09.524Z,0
2017-05-12T01:37:19.427Z,0
2017-05-12T01:38:29.029Z,0
2017-05-12T01:39:38.667Z,0
2017-05-12T01:40:48.281Z,0
2017-05-12T01:41:58.346Z,0
2017-05-12T01:43:07.640Z,0
2017-05-12T01:44:17.245Z,0
2017-05-12T01:45:27.468Z,0
2017-05-12T01:46:37.678Z,0
2017-05-12T01:47:47.383Z,0
2017-05-12T01:51:30.270Z,0
2017-05-12T01:52:40.489Z,0
2017-05-12T01:56:22.912Z,0
2017-05-12T01:57:33.130Z,0
2017-05-12T01:58:43.049Z,0
2017-05-12T01:59:53.335Z,0
2017-05-12T02:01:03.257Z,0
2017-05-12T02:02:12.850Z,0
2017-05-12T02:03:23.051Z,0
2017-05-12T02:04:33.567Z,0
2017-05-12T02:05:43.808Z,0
2017-05-12T02:06:53.720Z,0
2017-05-12T02:08:03.314Z,0
2017-05-12T02:09:12.622Z,0
2017-05-12T02:10:23.139Z,0
2017-05-12T02:11:33.361Z,0
2017-05-12T02:12:43.288Z,0
2017-05-12T02:13:53.509Z,0
2017-05-12T02:15:03.729Z,0
2017-05-12T02:16:12.965Z,0
2017-05-12T02:17:23.176Z,0
2017-05-12T02:18:33.392Z,0
2017-05-12T02:19:42.995Z,0
2017-05-12T02:20:52.603Z,0
2017-05-12T02:22:02.913Z,0
2017-05-12T02:23:13.145Z,0
2017-05-12T02:24:23.034Z,0
2017-05-12T02:25:33.248Z,0
2017-05-12T02:26:43.481Z,0
2017-05-12T02:27:54.045Z,0
2017-05-12T02:29:03.642Z,0
2017-05-12T02:30:13.253Z,0
2017-05-12T02:31:23.464Z,0
2017-05-12T02:32:33.370Z,0
2017-05-12T02:33:43.887Z,0
2017-05-12T02:34:54.098Z,0
2017-05-12T02:36:03.702Z,0
2017-05-12T02:37:13.604Z,0
2017-05-12T02:38:23.521Z,0
2017-05-12T02:39:33.423Z,0
2017-05-12T02:40:43.032Z,0
2017-05-12T02:41:53.232Z,0
2017-05-12T02:43:03.142Z,0
2017-05-12T02:44:12.740Z,0
2017-05-12T02:45:22.750Z,0
2017-05-12T02:46:32.977Z,0
2017-05-12T02:47:42.588Z,0
2017-05-12T02:48:52.242Z,0
2017-05-12T02:50:01.849Z,0
2017-05-12T02:51:11.317Z,0
2017-05-12T02:52:21.221Z,0
2017-05-12T02:53:31.426Z,0
2017-05-12T02:54:41.634Z,0
2017-05-12T02:55:51.549Z,0
2017-05-12T02:57:01.817Z,0
2017-05-12T02:58:11.720Z,0
2017-05-12T02:59:21.347Z,0
2017-05-12T03:00:31.025Z,0
2017-05-12T03:01:40.963Z,0
2017-05-12T03:02:51.583Z,0
2017-05-12T03:04:01.496Z,0
2017-05-12T03:05:11.089Z,0
2017-05-12T03:06:20.692Z,0
2017-05-12T03:07:29.996Z,0
2017-05-12T03:08:40.315Z,0
2017-05-12T03:09:49.323Z,0
2017-05-12T03:10:59.538Z,0
2017-05-12T03:12:09.440Z,0
2017-05-12T03:13:19.042Z,0
2017-05-12T03:14:29.566Z,0
2017-05-12T03:15:38.862Z,0
2017-05-12T03:16:48.457Z,0
2017-05-12T03:17:58.674Z,0
2017-05-12T03:19:08.575Z,0
2017-05-12T03:20:18.790Z,0
2017-05-12T03:21:28.699Z,0
2017-05-12T03:22:38.616Z,0
2017-05-12T03:23:48.230Z,0
2017-05-12T03:24:58.156Z,0
2017-05-12T03:26:08.004Z,0
2017-05-12T03:27:17.913Z,0
2017-05-12T03:28:28.127Z,0
2017-05-12T03:29:38.041Z,0
2017-05-12T03:30:48.258Z,0
2017-05-12T03:31:58.153Z,0
2017-05-12T03:33:08.064Z,0
2017-05-12T03:34:18.280Z,4
2017-05-12T03:35:27.932Z,4
2017-05-12T03:36:37.840Z,4
2017-05-12T03:37:48.226Z,4
2017-05-12T03:38:58.132Z,4
2017-05-12T03:40:07.419Z,4
2017-05-12T03:41:16.719Z,8
2017-05-12T03:42:26.624Z,8
2017-05-12T03:43:36.677Z,8
2017-05-12T03:44:46.586Z,12
2017-05-12T03:45:56.508Z,12
2017-05-12T03:47:06.116Z,12
2017-05-12T03:48:16.339Z,16
2017-05-12T03:49:26.515Z,16
2017-05-12T03:50:36.117Z,20
2017-05-12T03:51:46.075Z,20
2017-05-12T03:52:56.001Z,20
2017-05-12T03:54:05.920Z,24
2017-05-12T03:55:15.935Z,28
2017-05-12T03:56:26.156Z,32
2017-05-12T03:57:36.121Z,32
2017-05-12T03:58:46.389Z,32
2017-05-12T03:59:56.306Z,36
2017-05-12T04:01:06.364Z,40
2017-05-12T04:02:16.287Z,40
2017-05-12T04:03:26.223Z,40
2017-05-12T04:04:36.132Z,48
2017-05-12T04:05:46.048Z,48
2017-05-12T04:06:56.574Z,48
2017-05-12T04:08:06.190Z,56
2017-05-12T04:09:15.800Z,64
2017-05-12T04:10:25.722Z,72
2017-05-12T04:11:35.654Z,84
2017-05-12T04:12:46.188Z,96
2017-05-12T04:13:55.789Z,108
2017-05-12T04:15:05.739Z,120
2017-05-12T04:16:15.368Z,120
2017-05-12T04:17:25.273Z,120
2017-05-12T04:18:35.439Z,120
2017-05-12T04:19:45.665Z,124
2017-05-12T04:20:55.573Z,124
2017-05-12T04:22:05.475Z,128
2017-05-12T04:23:15.392Z,128
2017-05-12T04:24:25.686Z,132
2017-05-12T04:25:35.650Z,140
2017-05-12T04:26:46.047Z,152
2017-05-12T04:27:56.121Z,172
2017-05-12T04:29:06.471Z,184
2017-05-12T04:30:16.881Z,200
2017-05-12T04:31:27.061Z,216
2017-05-12T04:32:37.455Z,240
2017-05-12T04:33:47.835Z,256
2017-05-12T04:34:57.775Z,268
2017-05-12T04:36:08.267Z,284
2017-05-12T04:37:18.213Z,292
2017-05-12T04:38:28.154Z,296
2017-05-12T04:39:38.115Z,288
2017-05-12T04:40:48.085Z,292
2017-05-12T04:41:58.166Z,300
2017-05-12T04:43:07.805Z,296
2017-05-12T04:44:17.745Z,296
2017-05-12T04:45:27.439Z,304
2017-05-12T04:46:37.691Z,304
2017-05-12T04:47:47.907Z,304
2017-05-12T04:48:57.824Z,296
2017-05-12T04:50:07.437Z,288
2017-05-12T04:51:17.356Z,284
2017-05-12T04:52:27.376Z,296
2017-05-12T04:53:37.307Z,304
2017-05-12T04:54:46.938Z,312
2017-05-12T04:55:57.180Z,312
2017-05-12T04:57:07.402Z,332
2017-05-12T04:58:17.016Z,352
2017-05-12T04:59:27.412Z,364
2017-05-12T05:00:37.703Z,376
2017-05-12T05:01:47.626Z,368
2017-05-12T05:02:57.620Z,356
2017-05-12T05:04:07.821Z,340
2017-05-12T05:05:17.460Z,308
2017-05-12T05:06:27.717Z,260
2017-05-12T05:07:37.989Z,228
2017-05-12T05:08:47.630Z,204
2017-05-12T05:09:57.553Z,196
2017-05-12T05:11:07.830Z,204
2017-05-12T05:12:18.064Z,208
2017-05-12T05:13:28.002Z,212
2017-05-12T05:14:37.597Z,224
2017-05-12T05:15:47.232Z,236
2017-05-12T05:16:57.499Z,244
2017-05-12T05:18:07.442Z,252
2017-05-12T05:19:17.089Z,256
2017-05-12T05:20:27.323Z,268
2017-05-12T05:21:37.566Z,284
2017-05-12T05:22:48.068Z,300
2017-05-12T05:23:57.994Z,320
2017-05-12T05:25:07.906Z,336
2017-05-12T05:26:17.197Z,332
2017-05-12T05:27:27.098Z,320
2017-05-12T05:28:37.609Z,324
2017-05-12T05:29:47.519Z,328
2017-05-12T05:30:57.438Z,340
2017-05-12T05:32:07.666Z,368
2017-05-12T05:33:17.584Z,420
2017-05-12T05:34:27.941Z,508
2017-05-12T05:35:38.148Z,560
2017-05-12T05:36:48.058Z,576
2017-05-12T05:37:58.122Z,608
2017-05-12T05:39:08.041Z,640
2017-05-12T05:40:18.193Z,676
2017-05-12T05:41:28.144Z,704
2017-05-12T05:42:38.053Z,736
2017-05-12T05:43:48.275Z,772
2017-05-12T05:44:57.902Z,816
2017-05-12T05:46:08.294Z,864
2017-05-12T05:47:18.522Z,928
2017-05-12T05:48:28.733Z,1048
2017-05-12T05:49:38.956Z,1224
2017-05-12T05:50:49.170Z,1460
2017-05-12T05:51:59.543Z,1632
2017-05-12T05:53:09.767Z,1668
2017-05-12T05:54:19.691Z,1608
2017-05-12T05:55:29.616Z,1584
2017-05-12T05:56:39.533Z,1636
2017-05-12T05:57:49.907Z,1732
2017-05-12T05:59:00.128Z,1916
2017-05-12T06:00:09.737Z,2296
2017-05-12T06:01:19.959Z,3172
2017-05-12T06:02:30.179Z,7444
2017-05-12T06:03:40.547Z,3376
2017-05-12T06:04:50.159Z,1932
2017-05-12T06:06:00.068Z,1404
2017-05-12T06:07:09.982Z,1184
2017-05-12T06:08:19.697Z,1084
2017-05-12T06:09:30.193Z,1040
2017-05-12T06:10:40.415Z,1060
2017-05-12T06:11:50.022Z,1132
2017-05-12T06:13:00.247Z,1224
2017-05-12T06:14:10.464Z,1312
2017-05-12T06:15:19.853Z,1380
2017-05-12T06:16:29.757Z,1428
2017-05-12T06:17:39.986Z,1576
2017-05-12T06:18:49.909Z,1920
2017-05-12T06:20:00.135Z,2468
2017-05-12T06:21:10.146Z,3004
2017-05-12T06:22:20.068Z,3384
2017-05-12T06:23:29.682Z,3568
2017-05-12T06:24:39.608Z,3728
2017-05-12T06:25:49.567Z,3708
2017-05-12T06:26:59.592Z,3856
2017-05-12T06:28:09.507Z,4076
2017-05-12T06:29:19.123Z,3900
2017-05-12T06:30:29.043Z,3536
2017-05-12T06:31:38.355Z,3444
2017-05-12T06:32:48.390Z,3608
2017-05-12T06:33:58.307Z,3928
2017-05-12T06:35:08.220Z,4260
2017-05-12T06:36:18.131Z,4456
2017-05-12T06:37:27.732Z,4532
2017-05-12T06:38:38.060Z,4600
2017-05-12T06:39:47.968Z,4664
2017-05-12T06:40:57.579Z,4904
2017-05-12T06:42:06.266Z,5184
2017-05-12T06:43:16.178Z,5352
2017-05-12T06:44:26.195Z,5540
2017-05-12T06:45:36.414Z,5892
2017-05-12T06:46:46.645Z,6376
2017-05-12T06:47:56.248Z,6768
2017-05-12T06:49:06.201Z,7056
2017-05-12T06:50:15.969Z,7196
2017-05-12T06:51:25.899Z,7292
2017-05-12T06:52:35.509Z,7440
2017-05-12T06:53:45.738Z,7592
2017-05-12T06:54:56.335Z,7880
2017-05-12T06:56:06.768Z,8148
2017-05-12T06:57:17.500Z,8204
2017-05-12T06:58:27.730Z,8140
2017-05-12T06:59:37.964Z,8024
2017-05-12T07:00:47.571Z,8792
2017-05-12T07:01:58.147Z,13784
2017-05-12T07:03:08.065Z,15720
2017-05-12T07:04:17.376Z,19104
2017-05-12T07:05:26.696Z,16148
2017-05-12T07:06:35.690Z,15692
2017-05-12T07:07:46.066Z,11632
2017-05-12T07:08:56.294Z,11068
2017-05-12T07:10:05.592Z,19712
2017-05-12T07:11:15.519Z,15656
2017-05-12T07:12:25.142Z,13840
2017-05-12T07:13:34.897Z,14344
2017-05-12T07:14:45.129Z,12864
2017-05-12T07:15:55.045Z,13072
2017-05-12T07:17:04.655Z,13424
2017-05-12T07:18:14.286Z,29792
2017-05-12T07:19:24.065Z,35136
2017-05-12T07:20:33.989Z,36448
2017-05-12T07:21:43.610Z,44864
2017-05-12T07:22:53.233Z,48736
2017-05-12T07:24:03.480Z,54784
2017-05-12T07:25:12.934Z,48320
2017-05-12T07:26:22.558Z,38624
2017-05-12T07:27:32.183Z,39808
2017-05-12T07:28:42.415Z,50848
2017-05-12T07:29:52.653Z,33376
2017-05-12T07:31:02.718Z,30656
2017-05-12T07:32:12.632Z,19424
2017-05-12T07:33:22.554Z,27392
2017-05-12T07:34:32.173Z,14312
2017-05-12T07:35:42.103Z,21600
2017-05-12T07:36:51.965Z,22112
2017-05-12T07:38:01.896Z,17064
2017-05-12T07:39:11.519Z,33088
2017-05-12T07:40:21.765Z,37120
2017-05-12T07:41:31.070Z,14372
2017-05-12T07:42:41.095Z,14888
2017-05-12T07:43:51.337Z,12732
2017-05-12T07:45:01.267Z,11968
2017-05-12T07:46:10.885Z,12368
2017-05-12T07:47:20.809Z,14472
2017-05-12T07:48:31.220Z,11988
2017-05-12T07:52:14.210Z,24896
2017-05-12T07:53:24.608Z,13476
2017-05-12T07:54:34.543Z,10512
2017-05-12T07:55:44.785Z,8736
2017-05-12T07:56:54.117Z,8040
2017-05-12T07:58:03.117Z,6912
2017-05-12T07:59:13.539Z,6524
2017-05-12T08:00:23.480Z,6064
2017-05-12T08:01:33.113Z,7524
2017-05-12T08:02:42.764Z,5212
2017-05-12T08:03:52.685Z,4424
2017-05-12T08:05:02.466Z,4004
2017-05-12T08:06:12.700Z,3972
2017-05-12T08:07:22.626Z,4280
2017-05-12T08:08:32.567Z,4988
2017-05-12T08:09:42.490Z,5140
2017-05-12T08:10:52.265Z,8368
2017-05-12T08:12:02.568Z,8868
2017-05-12T08:13:12.814Z,11696
2017-05-12T08:14:22.754Z,9660
2017-05-12T08:15:32.374Z,8040
2017-05-12T08:16:42.456Z,10932
2017-05-12T08:17:52.384Z,10852
2017-05-12T08:19:02.332Z,14852
2017-05-12T08:20:11.947Z,8992
2017-05-12T08:21:21.884Z,8420
2017-05-12T08:22:31.948Z,7276
2017-05-12T08:23:41.887Z,7272
2017-05-12T08:24:51.227Z,8532
2017-05-12T08:26:00.849Z,7824
2017-05-12T08:27:10.178Z,6624
2017-05-12T08:28:20.213Z,5948
2017-05-12T08:29:30.144Z,5708
2017-05-12T08:30:40.068Z,5548
2017-05-12T08:31:50.301Z,5320
2017-05-12T08:33:00.231Z,5556
2017-05-12T08:34:10.326Z,4904
2017-05-12T08:35:20.250Z,4660
2017-05-12T08:36:29.596Z,4556
2017-05-12T08:37:39.228Z,4312
2017-05-12T08:38:49.174Z,4188
2017-05-12T08:39:59.210Z,4116
2017-05-12T08:41:08.832Z,4096
2017-05-12T08:42:19.069Z,4032
2017-05-12T08:43:28.700Z,3540
2017-05-12T08:44:38.622Z,4036
2017-05-12T08:45:48.995Z,4840
2017-05-12T08:46:58.929Z,5748
2017-05-12T08:48:08.859Z,4936
2017-05-12T08:49:18.157Z,11972
2017-05-12T08:50:27.462Z,33664
2017-05-12T08:51:37.541Z,13212
2017-05-12T08:52:47.152Z,16632
2017-05-12T08:53:57.075Z,16488
2017-05-12T08:55:07.008Z,9244
2017-05-12T08:56:16.626Z,8916
2017-05-12T08:57:26.715Z,8096
2017-05-12T08:58:36.338Z,7576
2017-05-12T08:59:45.967Z,7608
2017-05-12T09:00:55.899Z,8028
2017-05-12T09:02:06.189Z,8092
2017-05-12T09:03:16.578Z,7964
2017-05-12T09:04:26.206Z,7268
2017-05-12T09:05:35.849Z,6820
2017-05-12T09:06:45.797Z,6076
2017-05-12T09:07:55.121Z,5272
2017-05-12T09:09:05.506Z,5032
2017-05-12T09:10:15.460Z,4880
2017-05-12T09:11:25.389Z,5192
2017-05-12T09:12:35.352Z,5440
2017-05-12T09:13:45.286Z,5348
2017-05-12T09:14:55.373Z,5756
2017-05-12T09:16:05.300Z,4852
2017-05-12T09:17:15.605Z,3928
2017-05-12T09:18:25.248Z,3752
2017-05-12T09:19:35.482Z,3616
2017-05-12T09:20:45.559Z,3740
2017-05-12T09:21:55.794Z,3524
2017-05-12T09:23:05.421Z,3468
2017-05-12T09:24:14.734Z,3632
2017-05-12T09:25:24.669Z,3816
2017-05-12T09:26:34.736Z,3572
2017-05-12T09:27:44.378Z,4224
2017-05-12T09:28:54.603Z,4132
2017-05-12T09:30:04.222Z,3808
2017-05-12T09:31:14.457Z,3552
2017-05-12T09:32:24.251Z,3780
2017-05-12T09:33:34.220Z,4064
2017-05-12T09:34:44.141Z,3524
2017-05-12T09:35:54.371Z,3352
2017-05-12T09:37:04.287Z,3296
2017-05-12T09:38:14.360Z,3392
2017-05-12T09:39:24.300Z,3372
2017-05-12T09:40:33.631Z,3584
2017-05-12T09:41:43.868Z,4336
2017-05-12T09:42:53.797Z,4876
2017-05-12T09:44:04.206Z,5092
2017-05-12T09:45:13.820Z,4896
2017-05-12T09:46:23.762Z,4892
2017-05-12T09:47:34.375Z,4220
2017-05-12T09:48:44.306Z,4692
2017-05-12T09:49:53.833Z,4844
2017-05-12T09:51:04.073Z,5144
2017-05-12T09:52:14.400Z,4964
2017-05-12T09:53:24.016Z,4676
2017-05-12T09:54:33.958Z,4344
2017-05-12T09:55:43.117Z,4500
2017-05-12T09:56:53.366Z,4484
2017-05-12T09:58:03.594Z,3836
2017-05-12T09:59:13.534Z,3772
2017-05-12T10:00:23.491Z,3520
2017-05-12T10:01:33.572Z,3420
2017-05-12T10:02:42.904Z,3736
2017-05-12T10:03:52.217Z,4052
2017-05-12T10:05:02.139Z,4020
2017-05-12T10:06:12.059Z,4240
2017-05-12T10:07:21.833Z,4352
2017-05-12T10:08:31.766Z,4852
2017-05-12T10:09:42.021Z,4672
2017-05-12T10:10:51.954Z,4588
2017-05-12T10:12:01.887Z,4836
2017-05-12T10:13:12.369Z,4000
2017-05-12T10:14:22.306Z,3960
2017-05-12T10:15:32.237Z,4416
2017-05-12T10:16:42.166Z,4564
2017-05-12T10:17:52.397Z,4508
2017-05-12T10:19:02.787Z,4316
2017-05-12T10:20:12.725Z,4368
2017-05-12T10:21:22.345Z,4188
2017-05-12T10:22:32.276Z,4228
2017-05-12T10:23:41.894Z,4144
2017-05-12T10:24:51.628Z,4384
2017-05-12T10:26:01.561Z,4464
2017-05-12T10:27:11.490Z,4780
2017-05-12T10:28:21.733Z,4676
2017-05-12T10:29:31.672Z,4532
2017-05-12T10:30:41.701Z,4580
2017-05-12T10:31:51.329Z,4452
2017-05-12T10:33:01.259Z,4432
2017-05-12T10:34:10.268Z,4472
2017-05-12T10:35:19.888Z,4572
2017-05-12T10:36:29.912Z,4548
2017-05-12T10:37:39.842Z,4716
2017-05-12T10:38:49.764Z,4644
2017-05-12T10:39:59.997Z,4504
2017-05-12T10:41:09.312Z,4068
2017-05-12T10:42:19.658Z,3536
2017-05-12T10:43:29.894Z,3280
2017-05-12T10:44:39.828Z,3172
2017-05-12T10:45:50.074Z,2752
2017-05-12T10:46:59.999Z,2492
2017-05-12T10:48:09.727Z,2456
2017-05-12T10:49:19.662Z,2448
2017-05-12T10:50:29.611Z,2296
2017-05-12T10:51:39.232Z,2196
2017-05-12T10:52:49.177Z,2124
2017-05-12T10:53:59.269Z,2036
2017-05-12T10:55:09.214Z,2448
2017-05-12T10:56:19.458Z,2724
2017-05-12T10:57:29.395Z,3152
2017-05-12T10:58:38.709Z,2904
2017-05-12T10:59:48.781Z,2744
2017-05-12T11:00:57.791Z,2856
2017-05-12T11:02:07.416Z,2532
2017-05-12T11:03:17.335Z,2816
2017-05-12T11:04:26.966Z,3384
2017-05-12T11:05:37.358Z,3500
2017-05-12T11:06:46.682Z,3324
2017-05-12T11:07:56.908Z,3244
2017-05-12T11:09:07.133Z,3012
2017-05-12T11:10:17.366Z,2748
2017-05-12T11:11:27.447Z,2516
2017-05-12T11:12:37.383Z,2004
2017-05-12T11:13:47.329Z,1732
2017-05-12T11:14:57.559Z,1840
2017-05-12T11:16:07.184Z,1692
2017-05-12T11:17:17.264Z,1312
2017-05-12T11:18:27.186Z,1124
2017-05-12T11:19:37.118Z,1216
2017-05-12T11:20:46.755Z,1456
2017-05-12T11:21:56.681Z,1876
2017-05-12T11:23:06.766Z,2472
2017-05-12T11:24:16.748Z,3036
2017-05-12T11:25:26.725Z,3360
2017-05-12T11:26:36.340Z,3112
2017-05-12T11:27:46.570Z,2892
2017-05-12T11:28:56.631Z,2880
2017-05-12T11:30:06.247Z,2936
2017-05-12T11:31:16.172Z,2744
2017-05-12T11:32:26.413Z,2256
2017-05-12T11:33:36.339Z,1968
2017-05-12T11:34:46.719Z,1896
2017-05-12T11:35:56.957Z,2040
2017-05-12T11:37:06.884Z,2448
2017-05-12T11:38:16.498Z,2820
2017-05-12T11:39:26.125Z,3176
2017-05-12T11:40:36.521Z,3208
2017-05-12T11:41:46.467Z,2844
2017-05-12T11:42:56.406Z,2412
2017-05-12T11:44:06.643Z,2168
2017-05-12T11:45:16.580Z,2096
2017-05-12T11:46:26.658Z,2072
2017-05-12T11:47:36.277Z,2064
2017-05-12T11:48:45.937Z,1964
2017-05-12T11:49:55.555Z,1804
2017-05-12T11:51:05.175Z,1656
2017-05-12T11:52:15.264Z,1732
2017-05-12T11:53:25.186Z,1716
2017-05-12T11:54:35.459Z,1684
2017-05-12T11:55:45.762Z,1512
2017-05-12T11:56:55.682Z,1436
2017-05-12T11:58:06.067Z,1412
2017-05-12T11:59:15.682Z,1320
2017-05-12T12:00:25.298Z,1380
2017-05-12T12:01:35.532Z,1624
2017-05-12T12:02:45.146Z,1724
2017-05-12T12:03:55.285Z,1820
2017-05-12T12:05:05.507Z,2020
2017-05-12T12:06:15.119Z,2304
2017-05-12T12:07:25.032Z,2540
2017-05-12T12:08:34.955Z,2708
2017-05-12T12:09:44.415Z,2776
2017-05-12T12:10:54.354Z,2804
2017-05-12T12:12:04.588Z,2888
2017-05-12T12:13:14.832Z,2944
2017-05-12T12:14:24.765Z,2948
2017-05-12T12:15:34.534Z,2852
2017-05-12T12:16:44.526Z,2716
2017-05-12T12:17:54.452Z,2668
2017-05-12T12:19:04.690Z,2652
2017-05-12T12:20:14.308Z,2712
2017-05-12T12:21:24.392Z,2984
2017-05-12T12:22:34.358Z,2744
2017-05-12T12:23:44.290Z,2644
2017-05-12T12:24:54.235Z,2588
2017-05-12T12:26:04.212Z,2600
2017-05-12T12:27:13.926Z,2624
2017-05-12T12:28:24.152Z,2740
2017-05-12T12:29:34.426Z,2740
2017-05-12T12:30:44.662Z,2600
2017-05-12T12:31:54.277Z,2480
2017-05-12T12:33:04.301Z,2492
2017-05-12T12:34:12.994Z,2804
2017-05-12T12:35:22.304Z,2920
2017-05-12T12:36:32.015Z,3004
2017-05-12T12:37:42.154Z,2892
2017-05-12T12:38:52.226Z,2916
2017-05-12T12:40:02.217Z,2800
2017-05-12T12:41:12.467Z,2832
2017-05-12T12:42:21.477Z,3000
2017-05-12T12:43:31.113Z,2828
2017-05-12T12:44:41.449Z,2468
2017-05-12T12:45:51.694Z,2388
2017-05-12T12:47:01.938Z,2232
2017-05-12T12:48:11.559Z,2208
2017-05-12T12:49:21.173Z,2228
2017-05-12T12:50:30.878Z,2256
2017-05-12T12:51:41.107Z,2396
2017-05-12T12:52:50.724Z,2440
2017-05-12T12:54:00.654Z,2884
2017-05-12T12:55:10.997Z,2636
2017-05-12T12:56:21.109Z,2952
2017-05-12T12:57:30.732Z,2732
2017-05-12T12:58:40.349Z,2584
2017-05-12T12:59:49.972Z,2328
2017-05-12T13:01:00.219Z,2156
2017-05-12T13:02:09.983Z,2132
2017-05-12T13:03:19.602Z,2220
2017-05-12T13:04:28.941Z,2248
2017-05-12T13:05:38.876Z,2248
2017-05-12T13:06:48.803Z,2136
2017-05-12T13:07:58.882Z,2044
2017-05-12T13:09:09.133Z,2016
2017-05-12T13:10:19.053Z,2328
2017-05-12T13:11:28.976Z,2280
2017-05-12T13:12:38.908Z,2416
2017-05-12T13:13:49.279Z,2452
2017-05-12T13:14:59.188Z,2700
2017-05-12T13:16:09.122Z,3016
2017-05-12T13:17:19.037Z,2964
2017-05-12T13:18:29.382Z,2760
2017-05-12T13:19:39.287Z,2568
2017-05-12T13:20:49.344Z,2436
2017-05-12T13:22:00.215Z,2164
2017-05-12T13:23:10.545Z,2304
2017-05-12T13:24:20.480Z,2436
2017-05-12T13:25:30.249Z,2332
2017-05-12T13:26:40.180Z,2308
2017-05-12T13:27:50.134Z,1856
2017-05-12T13:28:59.750Z,1712
2017-05-12T13:30:09.680Z,1744
2017-05-12T13:31:19.762Z,1668
2017-05-12T13:32:29.395Z,1664
2017-05-12T13:33:39.636Z,1812
2017-05-12T13:34:49.583Z,1820
2017-05-12T13:35:59.508Z,1956
2017-05-12T13:37:09.583Z,1852
2017-05-12T13:38:19.505Z,1736
2017-05-12T13:39:29.122Z,1936
2017-05-12T13:40:39.045Z,1784
2017-05-12T13:41:49.010Z,1664
2017-05-12T13:42:59.449Z,1648
2017-05-12T13:44:09.695Z,1624
2017-05-12T13:45:19.631Z,1608
2017-05-12T13:46:29.862Z,1676
2017-05-12T13:47:39.813Z,1716
2017-05-12T13:48:49.901Z,1748
2017-05-12T13:50:00.148Z,1644
2017-05-12T13:51:10.075Z,1484
2017-05-12T13:52:19.396Z,1364
2017-05-12T13:53:29.328Z,1272
2017-05-12T13:54:39.706Z,1252
2017-05-12T13:55:49.338Z,1232
2017-05-12T13:56:58.973Z,1216
2017-05-12T13:58:09.212Z,1276
2017-05-12T13:59:19.144Z,1336
2017-05-12T14:00:29.224Z,1464
2017-05-12T14:01:39.160Z,1556
2017-05-12T14:02:48.773Z,1424
2017-05-12T14:03:59.015Z,1600
2017-05-12T14:05:08.938Z,1768
2017-05-12T14:06:19.325Z,1828
2017-05-12T14:07:29.258Z,1928
2017-05-12T14:08:39.488Z,2060
2017-05-12T14:09:49.099Z,2368
2017-05-12T14:10:58.416Z,2784
2017-05-12T14:12:08.808Z,2908
2017-05-12T14:13:17.526Z,2728
2017-05-12T14:14:26.840Z,2512
2017-05-12T14:15:37.068Z,2400
2017-05-12T14:16:46.690Z,2268
2017-05-12T14:17:56.466Z,2192
2017-05-12T14:19:06.703Z,2124
2017-05-12T14:20:16.949Z,2156
2017-05-12T14:21:26.895Z,1788
2017-05-12T14:22:37.146Z,1952
2017-05-12T14:23:47.781Z,1956
2017-05-12T14:24:57.407Z,1924
2017-05-12T14:26:07.331Z,2024
2017-05-12T14:27:17.016Z,2032
2017-05-12T14:28:26.639Z,2072
2017-05-12T14:29:36.714Z,2116
2017-05-12T14:30:46.984Z,2036
2017-05-12T14:31:56.602Z,2124
2017-05-12T14:33:06.558Z,2204
2017-05-12T14:34:16.494Z,2404
2017-05-12T14:35:26.509Z,2356
2017-05-12T14:36:36.744Z,2328
2017-05-12T14:37:46.681Z,2416
2017-05-12T14:38:56.928Z,2544
2017-05-12T14:40:07.164Z,2608
2017-05-12T14:41:17.185Z,2528
2017-05-12T14:42:27.105Z,2412
2017-05-12T14:43:37.040Z,2320
2017-05-12T14:44:46.964Z,2280
2017-05-12T14:45:57.195Z,2240
2017-05-12T14:47:07.211Z,2196
2017-05-12T14:48:17.434Z,2096
2017-05-12T14:49:27.663Z,2008
2017-05-12T14:50:37.594Z,1832
2017-05-12T14:51:47.836Z,1596
2017-05-12T14:52:57.854Z,1904
2017-05-12T14:54:08.097Z,1908
2017-05-12T14:55:18.029Z,1964
2017-05-12T14:56:27.692Z,1876
2017-05-12T14:57:37.307Z,1736
2017-05-12T14:58:47.408Z,1748
2017-05-12T14:59:57.644Z,1768
2017-05-12T15:01:07.551Z,1768
2017-05-12T15:02:17.169Z,1796
2017-05-12T15:03:26.778Z,1864
2017-05-12T15:04:37.161Z,2068
2017-05-12T15:05:47.114Z,2116
2017-05-12T15:06:57.043Z,2052
2017-05-12T15:08:07.275Z,1856
2017-05-12T15:09:17.209Z,1764
2017-05-12T15:10:27.310Z,1648
2017-05-12T15:11:37.240Z,1544
2017-05-12T15:12:46.605Z,1404
2017-05-12T15:13:56.548Z,1296
2017-05-12T15:15:06.536Z,1280
2017-05-12T15:16:16.314Z,1224
2017-05-12T15:17:25.930Z,1240
2017-05-12T15:18:35.253Z,1240
2017-05-12T15:19:45.190Z,1240
2017-05-12T15:20:54.807Z,1236
2017-05-12T15:22:04.580Z,1256
2017-05-12T15:23:14.204Z,1272
2017-05-12T15:24:24.435Z,1304
2017-05-12T15:25:34.686Z,1348
2017-05-12T15:26:44.001Z,1396
2017-05-12T15:27:53.775Z,1520
2017-05-12T15:29:03.096Z,1556
2017-05-12T15:30:12.705Z,1572
2017-05-12T15:31:22.365Z,1536
2017-05-12T15:32:31.692Z,1556
2017-05-12T15:33:41.763Z,1692
2017-05-12T15:34:51.685Z,1724
2017-05-12T15:36:00.999Z,1700
2017-05-12T15:37:10.920Z,1616
2017-05-12T15:38:20.863Z,1596
2017-05-12T15:39:31.241Z,1668
2017-05-12T15:40:40.243Z,1460
2017-05-12T15:41:50.492Z,1360
2017-05-12T15:43:00.732Z,1424
2017-05-12T15:44:10.340Z,1516
2017-05-12T15:45:20.113Z,1432
2017-05-12T15:46:30.058Z,1452
2017-05-12T15:47:39.987Z,1380
2017-05-12T15:48:49.927Z,1328
2017-05-12T15:49:59.893Z,1300
2017-05-12T15:51:10.296Z,1288
2017-05-12T15:52:20.224Z,1228
2017-05-12T15:53:29.551Z,1200
2017-05-12T15:54:39.774Z,1156
2017-05-12T15:55:49.413Z,1160
2017-05-12T15:56:59.808Z,1212
2017-05-12T15:58:09.436Z,1236
2017-05-12T15:59:19.374Z,1196
2017-05-12T16:00:29.620Z,1188
2017-05-12T16:01:39.555Z,1120
2017-05-12T16:02:49.617Z,1104